createdAt,value
2017-08-21T08:13:23.945Z,20.22
2017-08-21T08:44:21.915Z,20.45
2017-08-21T08:58:11.616Z,20.74
2017-08-21T09:00:54.759Z,20.72
2017-08-21T09:09:04.807Z,20.66
2017-08-21T09:26:34.254Z,21.04
2017-08-21T09:31:11.688Z,20.90
2017-08-21T09:33:55.660Z,20.81
2017-08-21T09:43:25.015Z,20.98
2017-08-21T09:46:08.410Z,21.15
2017-08-21T09:51:40.511Z,21.16
2017-08-21T09:54:58.259Z,21.17
2017-08-21T10:00:44.953Z,21.07
2017-08-21T10:04:47.757Z,21.16
2017-08-21T10:09:48.006Z,21.53
2017-08-21T10:12:54.645Z,21.68
2017-08-21T10:15:42.065Z,21.72
2017-08-21T10:18:36.381Z,21.69
2017-08-21T10:21:31.312Z,21.84
2017-08-21T10:24:26.401Z,22.08
2017-08-21T10:27:32.934Z,22.35
2017-08-21T10:30:23.253Z,22.58
2017-08-21T10:33:18.171Z,22.65
2017-08-21T10:36:13.079Z,22.63
2017-08-21T10:39:08.014Z,22.51
2017-08-21T10:42:25.428Z,22.32
2017-08-21T10:45:13.160Z,22.27
2017-08-21T10:50:34.810Z,22.26
2017-08-21T10:53:52.809Z,22.39
2017-08-21T10:57:46.947Z,22.43
2017-08-21T11:00:31.712Z,22.39
2017-08-21T11:03:26.100Z,22.29
2017-08-21T11:09:38.144Z,22.06
2017-08-21T11:12:25.839Z,21.96
2017-08-21T11:17:13.528Z,21.84
2017-08-21T11:20:09.134Z,21.84
2017-08-21T11:22:58.533Z,21.81
2017-08-21T11:29:16.352Z,21.74
2017-08-21T11:35:34.799Z,21.85
2017-08-21T11:38:18.363Z,21.91
2017-08-21T11:41:12.231Z,21.89
2017-08-21T11:47:01.153Z,21.72
2017-08-21T11:49:55.818Z,21.62
2017-08-21T11:52:50.628Z,21.54
2017-08-21T11:55:45.301Z,21.46
2017-08-21T12:02:42.450Z,21.28
2017-08-21T12:10:07.952Z,21.33
2017-08-21T12:12:52.448Z,21.38
2017-08-21T12:16:31.874Z,21.35
2017-08-21T12:19:17.673Z,21.33
2017-08-21T12:22:11.976Z,21.29
2017-08-21T12:25:06.341Z,21.20
2017-08-21T12:28:00.851Z,21.12
2017-08-21T12:32:03.138Z,21.04
2017-08-21T12:34:59.306Z,21.09
2017-08-21T12:37:48.663Z,21.09
2017-08-21T12:41:05.680Z,21.08
2017-08-21T12:45:23.424Z,21.08
2017-08-21T12:48:41.691Z,21.18
2017-08-21T12:57:16.218Z,21.11
2017-08-21T13:03:00.094Z,21.08
2017-08-21T13:06:06.365Z,21.20
2017-08-21T13:09:15.674Z,21.24
2017-08-21T13:12:25.257Z,21.25
2017-08-21T13:15:12.417Z,21.25
2017-08-21T13:18:06.644Z,21.21
2017-08-21T13:21:01.166Z,21.15
2017-08-21T13:24:18.157Z,21.09
2017-08-21T13:27:16.810Z,21.05
2017-08-21T13:30:06.242Z,21.03
2017-08-21T13:33:00.482Z,21.01
2017-08-21T13:35:55.083Z,21.00
2017-08-21T13:38:49.521Z,20.99
2017-08-21T13:42:17.826Z,20.97
2017-08-21T13:45:26.801Z,21.00
2017-08-21T13:52:17.993Z,21.13
2017-08-21T13:55:07.438Z,21.15
2017-08-21T13:59:20.821Z,21.09
2017-08-21T14:02:16.433Z,21.12
2017-08-21T14:07:09.926Z,21.08
2017-08-21T14:55:10.514Z,21.88
2017-08-21T15:05:48.611Z,21.76
2017-08-21T15:09:05.767Z,21.75
2017-08-21T15:12:14.244Z,21.62
2017-08-21T15:17:28.509Z,21.40
2017-08-21T15:24:09.744Z,21.32
2017-08-21T15:26:53.269Z,21.33
2017-08-21T15:45:41.626Z,21.41
2017-08-21T15:48:24.812Z,21.44
2017-08-21T15:52:03.734Z,21.29
2017-08-21T16:11:46.374Z,21.59
2017-08-21T16:14:29.527Z,21.60
2017-08-21T16:17:23.094Z,21.48
2017-08-21T16:20:17.379Z,21.29
2017-08-21T16:23:12.094Z,21.13
2017-08-21T16:26:06.622Z,20.96
2017-08-21T16:31:55.756Z,20.69
2017-08-21T16:34:50.411Z,20.58
2017-08-21T16:38:18.911Z,20.47
2017-08-21T16:42:47.005Z,20.42
